createdAt,value
2023-02-18T00:01:12.673Z,6.72
2023-02-18T00:04:39.997Z,6.70
2023-02-18T00:08:07.369Z,6.68
2023-02-18T00:11:37.178Z,6.68
2023-02-18T00:15:02.697Z,6.67
2023-02-18T00:18:30.109Z,6.67
2023-02-18T00:21:57.110Z,6.65
2023-02-18T00:25:24.252Z,6.61
2023-02-18T00:28:53.106Z,6.60
2023-02-18T00:32:20.481Z,6.58
2023-02-18T00:35:47.676Z,6.56
2023-02-18T00:39:16.071Z,6.53
2023-02-18T00:42:43.189Z,6.53
2023-02-18T00:46:10.878Z,6.50
2023-02-18T00:49:38.692Z,6.46
2023-02-18T00:53:05.890Z,6.40
2023-02-18T00:56:33.008Z,6.35
2023-02-18T01:00:00.203Z,6.24
2023-02-18T01:03:27.773Z,6.15
2023-02-18T01:06:55.001Z,6.10
2023-02-18T01:10:22.556Z,6.05
2023-02-18T01:13:52.278Z,5.98
2023-02-18T01:17:19.756Z,5.91
2023-02-18T01:20:48.076Z,5.88
2023-02-18T01:24:16.026Z,5.86
2023-02-18T01:27:43.302Z,5.87
2023-02-18T01:31:14.106Z,5.90
2023-02-18T01:34:41.412Z,5.90
2023-02-18T01:38:09.574Z,5.91
2023-02-18T01:41:36.797Z,5.91
2023-02-18T01:45:34.535Z,5.89
2023-02-18T01:49:03.648Z,5.88
2023-02-18T01:52:34.071Z,5.84
2023-02-18T01:56:06.735Z,5.82
2023-02-18T01:59:39.107Z,5.77
2023-02-18T02:03:06.579Z,5.72
2023-02-18T02:06:34.515Z,5.64
2023-02-18T02:10:03.212Z,5.58
2023-02-18T02:13:43.068Z,5.54
2023-02-18T02:17:13.028Z,5.53
2023-02-18T02:21:20.795Z,5.49
2023-02-18T02:25:08.727Z,5.47
2023-02-18T02:29:09.423Z,5.48
2023-02-18T02:33:12.679Z,5.52
2023-02-18T02:36:49.106Z,5.57
2023-02-18T02:40:27.678Z,5.61
2023-02-18T02:43:58.320Z,5.66
2023-02-18T02:47:44.623Z,5.66
2023-02-18T02:51:16.972Z,5.67
2023-02-18T02:54:44.227Z,5.68
2023-02-18T02:58:18.610Z,5.68
2023-02-18T03:02:00.501Z,5.67
2023-02-18T03:05:40.352Z,5.68
2023-02-18T03:09:17.983Z,5.69
2023-02-18T03:12:54.722Z,5.67
2023-02-18T03:16:34.517Z,5.67
2023-02-18T03:20:10.546Z,5.68
2023-02-18T03:23:49.298Z,5.69
2023-02-18T03:27:21.357Z,5.67
2023-02-18T03:30:52.883Z,5.65
2023-02-18T03:34:26.827Z,5.65
2023-02-18T03:38:01.069Z,5.63
2023-02-18T03:41:30.885Z,5.60
2023-02-18T03:44:59.274Z,5.61
2023-02-18T03:48:27.085Z,5.59
2023-02-18T03:51:54.366Z,5.60
2023-02-18T03:55:21.615Z,5.60
2023-02-18T03:58:51.683Z,5.61
2023-02-18T04:02:19.045Z,5.61
2023-02-18T04:05:46.501Z,5.58
2023-02-18T04:09:13.895Z,5.58
2023-02-18T04:12:41.209Z,5.56
2023-02-18T04:16:09.873Z,5.53
2023-02-18T04:19:37.419Z,5.54
2023-02-18T04:23:04.745Z,5.54
2023-02-18T04:26:32.272Z,5.55
2023-02-18T04:29:59.421Z,5.55
2023-02-18T04:33:26.506Z,5.55
2023-02-18T04:36:53.771Z,5.54
2023-02-18T04:40:21.482Z,5.52
2023-02-18T04:43:48.627Z,5.48
2023-02-18T04:47:16.478Z,5.44
2023-02-18T04:50:44.996Z,5.43
2023-02-18T04:54:12.120Z,5.41
2023-02-18T04:57:39.382Z,5.40
2023-02-18T05:01:07.220Z,5.38
2023-02-18T05:04:34.926Z,5.39
2023-02-18T05:08:02.496Z,5.37
2023-02-18T05:11:29.659Z,5.33
2023-02-18T05:14:56.843Z,5.30
2023-02-18T05:18:24.097Z,5.27
2023-02-18T05:21:51.430Z,5.23
2023-02-18T05:25:19.204Z,5.21
2023-02-18T05:28:46.508Z,5.20
2023-02-18T05:32:13.826Z,5.19
2023-02-18T05:35:41.599Z,5.17
2023-02-18T05:39:08.796Z,5.14
2023-02-18T05:42:36.116Z,5.07
2023-02-18T05:46:03.396Z,5.00
2023-02-18T05:49:31.406Z,4.91
2023-02-18T05:52:58.509Z,4.84
2023-02-18T05:56:25.679Z,4.76
2023-02-18T05:59:53.315Z,4.72
2023-02-18T06:03:20.599Z,4.71
2023-02-18T06:06:48.294Z,4.71
2023-02-18T06:10:15.724Z,4.72
2023-02-18T06:13:43.090Z,4.75
2023-02-18T06:17:10.475Z,4.78
2023-02-18T06:20:37.397Z,4.80
2023-02-18T06:24:05.144Z,4.83
2023-02-18T06:27:32.437Z,4.87
2023-02-18T06:30:59.678Z,4.89
2023-02-18T06:34:27.898Z,4.92
2023-02-18T06:37:55.044Z,4.95
2023-02-18T06:41:22.157Z,5.00
2023-02-18T06:44:49.614Z,5.05
2023-02-18T06:48:18.147Z,5.10
2023-02-18T06:51:45.606Z,5.16
2023-02-18T06:55:14.020Z,5.21
2023-02-18T06:58:41.762Z,5.26
2023-02-18T07:02:08.908Z,5.31
2023-02-18T07:05:36.487Z,5.35
2023-02-18T07:09:03.628Z,5.39
2023-02-18T07:12:31.016Z,5.42
2023-02-18T07:15:58.147Z,5.44
2023-02-18T07:19:25.766Z,5.48
2023-02-18T07:22:53.943Z,5.54
2023-02-18T07:26:21.274Z,5.60
2023-02-18T07:29:49.159Z,5.67
2023-02-18T07:33:16.457Z,5.76
2023-02-18T07:36:43.785Z,5.86
2023-02-18T07:40:13.878Z,5.96
2023-02-18T07:43:41.292Z,6.04
2023-02-18T07:47:14.954Z,6.10
2023-02-18T07:50:44.428Z,6.15
2023-02-18T07:54:11.712Z,6.23
2023-02-18T07:57:57.482Z,6.36
2023-02-18T08:01:27.625Z,6.51
2023-02-18T08:04:55.130Z,6.59
2023-02-18T08:08:24.187Z,6.61
2023-02-18T08:11:51.756Z,6.67
2023-02-18T08:15:19.444Z,6.79
2023-02-18T08:18:48.048Z,6.91
2023-02-18T08:22:15.383Z,6.99
2023-02-18T08:25:46.239Z,7.04
2023-02-18T08:29:13.453Z,7.03
2023-02-18T08:32:40.710Z,7.02
2023-02-18T08:36:11.301Z,7.05
2023-02-18T08:39:40.143Z,7.07
2023-02-18T08:43:07.647Z,7.11
2023-02-18T08:46:35.541Z,7.20
2023-02-18T08:50:04.600Z,7.35
2023-02-18T08:53:31.861Z,7.49
2023-02-18T08:56:59.119Z,7.67
2023-02-18T09:00:27.198Z,7.81
2023-02-18T09:03:54.529Z,7.93
2023-02-18T09:07:22.236Z,8.01
2023-02-18T09:10:49.463Z,8.04
2023-02-18T09:14:16.878Z,8.02
2023-02-18T09:17:44.433Z,8.01
2023-02-18T09:21:13.582Z,7.99
2023-02-18T09:24:42.207Z,7.96
2023-02-18T09:28:09.596Z,8.01
2023-02-18T09:31:38.212Z,8.02
2023-02-18T09:35:06.018Z,8.01
2023-02-18T09:38:33.242Z,8.04
2023-02-18T09:42:03.979Z,8.05
2023-02-18T09:45:31.618Z,8.13
2023-02-18T09:48:59.517Z,8.28
2023-02-18T09:52:29.878Z,8.52
2023-02-18T09:55:58.568Z,8.70
2023-02-18T09:59:28.543Z,8.84
2023-02-18T10:02:58.385Z,8.96
2023-02-18T10:06:30.889Z,9.06
2023-02-18T10:10:03.645Z,9.19
2023-02-18T10:13:33.236Z,9.22
2023-02-18T10:17:01.586Z,9.19
2023-02-18T10:20:31.856Z,9.22
2023-02-18T10:24:05.134Z,9.37
2023-02-18T10:27:34.941Z,9.50
2023-02-18T10:31:09.859Z,9.69
2023-02-18T10:34:44.237Z,9.96
2023-02-18T10:38:19.840Z,10.25
2023-02-18T10:41:52.887Z,10.54
2023-02-18T10:45:30.121Z,10.77
2023-02-18T10:49:22.236Z,10.98
2023-02-18T10:52:53.691Z,11.08
2023-02-18T11:00:24.508Z,11.03
2023-02-18T11:04:04.852Z,10.95
2023-02-18T11:07:39.205Z,10.91
2023-02-18T11:11:17.343Z,10.80
2023-02-18T11:14:47.440Z,10.67
2023-02-18T11:18:31.805Z,10.66
2023-02-18T11:22:10.545Z,10.55
2023-02-18T11:25:40.366Z,10.38
2023-02-18T11:29:07.654Z,10.27
2023-02-18T11:32:38.243Z,10.20
2023-02-18T11:36:15.603Z,10.05
2023-02-18T11:39:47.920Z,9.89
2023-02-18T11:43:17.567Z,9.80
2023-02-18T11:46:57.023Z,9.71
2023-02-18T11:50:25.884Z,9.65
2023-02-18T11:54:05.353Z,9.59
2023-02-18T11:57:39.477Z,9.45
2023-02-18T12:01:14.349Z,9.35
2023-02-18T12:04:47.268Z,9.34
2023-02-18T12:08:20.601Z,9.31
2023-02-18T12:11:50.687Z,9.28
2023-02-18T12:15:25.541Z,9.23
2023-02-18T12:19:19.872Z,9.12
2023-02-18T12:22:58.240Z,8.99
2023-02-18T12:26:29.952Z,8.80
2023-02-18T12:30:28.254Z,8.53
2023-02-18T12:34:14.283Z,8.25
2023-02-18T12:38:02.355Z,8.02
2023-02-18T12:41:49.775Z,7.83
2023-02-18T12:45:45.115Z,7.64
2023-02-18T12:49:55.704Z,7.45
2023-02-18T12:53:54.484Z,7.21
2023-02-18T12:57:44.961Z,7.02
2023-02-18T13:01:30.429Z,6.86
2023-02-18T13:05:08.047Z,6.77
2023-02-18T13:08:48.505Z,6.68
2023-02-18T13:12:21.002Z,6.58
2023-02-18T13:15:54.150Z,6.48
2023-02-18T13:19:26.335Z,6.41
2023-02-18T13:22:53.824Z,6.35
2023-02-18T13:26:22.425Z,6.24
2023-02-18T13:29:57.386Z,6.13
2023-02-18T13:33:33.312Z,6.03
2023-02-18T13:37:09.806Z,5.91
2023-02-18T13:40:38.358Z,5.85
2023-02-18T13:44:11.192Z,5.80
2023-02-18T13:47:43.839Z,5.78
2023-02-18T13:51:11.853Z,5.78
2023-02-18T13:54:45.112Z,5.75
2023-02-18T13:58:20.702Z,5.69
2023-02-18T14:01:50.063Z,5.59
2023-02-18T14:05:25.769Z,5.50
2023-02-18T14:09:03.424Z,5.40
2023-02-18T14:12:40.322Z,5.34
2023-02-18T14:16:12.232Z,5.33
2023-02-18T14:19:39.450Z,5.29
2023-02-18T14:23:38.510Z,5.26
2023-02-18T14:27:18.024Z,5.21
2023-02-18T14:30:46.111Z,5.20
2023-02-18T14:34:57.783Z,5.20
2023-02-18T14:38:37.091Z,5.18
2023-02-18T14:42:10.373Z,5.15
2023-02-18T14:45:57.726Z,5.09
2023-02-18T14:49:40.546Z,5.01
2023-02-18T14:53:13.431Z,4.88
2023-02-18T14:56:51.975Z,4.77
2023-02-18T15:00:23.002Z,4.67
2023-02-18T15:03:52.556Z,4.57
2023-02-18T15:07:22.556Z,4.49
2023-02-18T15:10:54.049Z,4.40
2023-02-18T15:14:23.833Z,4.29
2023-02-18T15:17:50.488Z,4.20
2023-02-18T15:21:25.397Z,4.15
2023-02-18T15:24:57.148Z,4.09
2023-02-18T15:28:30.461Z,4.01
2023-02-18T15:31:59.402Z,3.96
2023-02-18T15:35:31.757Z,3.93
2023-02-18T15:39:00.769Z,3.89
2023-02-18T15:42:31.741Z,3.85
2023-02-18T15:46:00.394Z,3.80
2023-02-18T15:49:27.674Z,3.76
2023-02-18T15:52:57.804Z,3.71
2023-02-18T15:56:30.739Z,3.66
2023-02-18T16:00:04.574Z,3.61
2023-02-18T16:03:33.270Z,3.56
2023-02-18T16:07:18.843Z,3.51
2023-02-18T16:10:51.312Z,3.47
2023-02-18T16:14:34.067Z,3.44
2023-02-18T16:18:01.410Z,3.39
2023-02-18T16:21:34.529Z,3.35
2023-02-18T16:25:03.247Z,3.30
2023-02-18T16:28:35.770Z,3.26
2023-02-18T16:32:03.394Z,3.23
2023-02-18T16:35:48.462Z,3.22
2023-02-18T16:39:16.706Z,3.21
2023-02-18T16:42:43.831Z,3.21
2023-02-18T16:46:16.352Z,3.20
2023-02-18T16:49:46.122Z,3.19
2023-02-18T16:53:13.168Z,3.16
2023-02-18T16:56:41.274Z,3.13
2023-02-18T17:00:10.708Z,3.11
2023-02-18T17:03:37.941Z,3.11
2023-02-18T17:07:07.534Z,3.10
2023-02-18T17:10:36.098Z,3.08
2023-02-18T17:14:05.219Z,3.08
2023-02-18T17:17:32.769Z,3.07
2023-02-18T17:20:59.898Z,3.07
2023-02-18T17:24:27.063Z,3.08
2023-02-18T17:27:54.406Z,3.10
2023-02-18T17:31:26.062Z,3.11
2023-02-18T17:34:53.294Z,3.12
2023-02-18T17:38:21.359Z,3.14
2023-02-18T17:41:48.442Z,3.17
2023-02-18T17:45:24.477Z,3.20
2023-02-18T17:48:51.738Z,3.24
2023-02-18T17:52:33.228Z,3.28
2023-02-18T17:56:00.496Z,3.31
2023-02-18T17:59:29.137Z,3.34
2023-02-18T18:02:56.785Z,3.36
2023-02-18T18:06:24.235Z,3.34
2023-02-18T18:09:51.470Z,3.31
2023-02-18T18:13:23.733Z,3.30
2023-02-18T18:16:51.043Z,3.30
2023-02-18T18:20:18.719Z,3.31
2023-02-18T18:23:45.824Z,3.32
2023-02-18T18:27:13.752Z,3.34
2023-02-18T18:30:43.258Z,3.37
2023-02-18T18:34:12.605Z,3.39
2023-02-18T18:37:39.805Z,3.41
2023-02-18T18:41:07.641Z,3.45
2023-02-18T18:44:35.045Z,3.46
2023-02-18T18:48:02.311Z,3.47
2023-02-18T18:51:32.815Z,3.47
2023-02-18T18:54:59.912Z,3.47
2023-02-18T18:58:27.590Z,3.50
2023-02-18T19:01:55.813Z,3.51
2023-02-18T19:05:30.227Z,3.53
2023-02-18T19:08:57.338Z,3.51
2023-02-18T19:12:24.446Z,3.47
2023-02-18T19:15:54.827Z,3.45
2023-02-18T19:19:24.765Z,3.43
2023-02-18T19:22:52.388Z,3.40
2023-02-18T19:26:20.798Z,3.40
2023-02-18T19:29:50.403Z,3.39
2023-02-18T19:33:18.176Z,3.35
2023-02-18T19:36:46.811Z,3.30
2023-02-18T19:40:18.030Z,3.26
2023-02-18T19:43:46.707Z,3.24
2023-02-18T19:47:14.114Z,3.23
2023-02-18T19:50:43.138Z,3.23
2023-02-18T19:54:10.200Z,3.23
2023-02-18T19:57:38.069Z,3.22
2023-02-18T20:01:11.491Z,3.22
2023-02-18T20:04:38.887Z,3.21
2023-02-18T20:08:06.478Z,3.20
2023-02-18T20:11:34.684Z,3.20
2023-02-18T20:15:03.156Z,3.20
2023-02-18T20:18:30.638Z,3.19
2023-02-18T20:21:58.604Z,3.16
2023-02-18T20:25:26.843Z,3.12
2023-02-18T20:28:54.737Z,3.06
2023-02-18T20:32:22.358Z,2.98
2023-02-18T20:35:58.789Z,2.91
2023-02-18T20:39:26.169Z,2.84
2023-02-18T20:42:53.381Z,2.78
2023-02-18T20:46:22.171Z,2.73
2023-02-18T20:49:49.298Z,2.70
2023-02-18T20:53:16.538Z,2.70
2023-02-18T20:56:44.495Z,2.72
2023-02-18T21:00:14.330Z,2.73
2023-02-18T21:03:42.319Z,2.72
2023-02-18T21:07:09.448Z,2.68
2023-02-18T21:10:40.637Z,2.64
2023-02-18T21:14:07.956Z,2.57
2023-02-18T21:17:35.182Z,2.52
2023-02-18T21:21:04.552Z,2.45
2023-02-18T21:24:34.502Z,2.37
2023-02-18T21:28:01.766Z,2.30
2023-02-18T21:31:31.250Z,2.24
2023-02-18T21:34:57.133Z,2.19
2023-02-18T21:38:24.340Z,2.16
2023-02-18T21:41:51.473Z,2.17
2023-02-18T21:45:19.744Z,2.18
2023-02-18T21:49:05.554Z,2.19
2023-02-18T21:52:32.838Z,2.21
2023-02-18T21:56:09.345Z,2.22
2023-02-18T21:59:37.495Z,2.25
2023-02-18T22:03:04.869Z,2.28
2023-02-18T22:06:32.149Z,2.31
2023-02-18T22:09:59.533Z,2.34
2023-02-18T22:13:26.786Z,2.37
2023-02-18T22:16:53.957Z,2.42
2023-02-18T22:20:21.200Z,2.47
2023-02-18T22:23:48.415Z,2.54
2023-02-18T22:27:24.376Z,2.58
2023-02-18T22:30:51.474Z,2.64
2023-02-18T22:34:19.308Z,2.70
2023-02-18T22:37:46.478Z,2.75
2023-02-18T22:41:15.697Z,2.80
2023-02-18T22:44:43.069Z,2.83
2023-02-18T22:48:10.428Z,2.88
2023-02-18T22:51:39.554Z,2.91
2023-02-18T22:55:07.746Z,2.93
2023-02-18T22:58:35.411Z,2.95
2023-02-18T23:02:02.592Z,2.97
2023-02-18T23:05:29.759Z,2.99
2023-02-18T23:08:59.003Z,3.01
2023-02-18T23:12:26.483Z,3.03
2023-02-18T23:16:03.992Z,3.05
2023-02-18T23:19:36.158Z,3.09
2023-02-18T23:23:03.194Z,3.12
2023-02-18T23:26:30.456Z,3.15
2023-02-18T23:29:57.881Z,3.18
2023-02-18T23:33:25.181Z,3.20
2023-02-18T23:36:52.412Z,3.22
2023-02-18T23:40:20.206Z,3.23
2023-02-18T23:43:47.826Z,3.23
2023-02-18T23:47:15.013Z,3.24
2023-02-18T23:50:42.345Z,3.24
2023-02-18T23:54:10.014Z,3.26
2023-02-18T23:57:37.430Z,3.26
